Andover, Connecticut
Current Conditions -  °F | °C
As of 1:52 PM on Tuesday 21 Oct 2014 (Local Time) from KIJD Reporting Station
Scattered Clouds Scattered Clouds  
Wind Chill: 67°   Ceiling: Unl
Heat Index: 67°   Visibility: 10mi
Dew Point: 47°   Wind: 6mph
Humidity: 49%   Direction: 200°SSW
Pressure: 29.88"   Gusts: NA
Location:  41.74°N, 72.37°W
Report Text: KIJD 211752Z AUTO 20005KT 10SM SCT044 19/08 A2988 RMK AO2 SLP118 T01940083 10200 20056 57020
Loading
Personal Weather Stations






























Interactive Weather Map
Tropical Storm Tracking
New forecast layout! Learn more

10-Day Weather Forecast

Advertisements
Track Severe Weather on mobile